Time;durP1;ratioP1;P1;durP2;ratioP2;P2;SDS_P1;SDS_P2;PMS_P1;PMS_P2;Temp;Humidity;BMP_temperature;BMP_pressure;BME280_temperature;BME280_humidity;BME280_pressure;Samples;Min_cycle;Max_cycle;Signal;HPM_P1;HPM_P2
2022/01/13 00:01:42;;;;;;;9.70;1.52;;;;;;;;;;5036474;28;20485;-54
2022/01/13 00:04:10;;;;;;;9.70;1.90;;;;;;;;;;5036331;28;20040;-55
2022/01/13 00:06:37;;;;;;;12.70;2.00;;;;;;;;;;5040836;28;20033;-52
2022/01/13 00:09:04;;;;;;;8.77;2.30;;;;;;;;;;5033301;28;20047;-55
2022/01/13 00:11:29;;;;;;;9.82;1.77;;;;;;;;;;5039148;28;20286;-55
2022/01/13 00:16:54;;;;;;;9.77;1.90;;;;;;;;;;5038177;28;20514;-55
2022/01/13 00:19:32;;;;;;;9.52;2.33;;;;;;;;;;5034436;28;20037;-56
2022/01/13 00:22:27;;;;;;;7.15;2.10;;;;;;;;;;5038872;28;20039;-56
2022/01/13 00:24:48;;;;;;;19.35;4.10;;;;;;;;;;5041584;28;20149;-56
2022/01/13 00:27:15;;;;;;;17.60;4.13;;;;;;;;;;5038080;28;20037;-54
2022/01/13 00:29:43;;;;;;;16.92;4.25;;;;;;;;;;5038794;28;20048;-54
2022/01/13 00:32:10;;;;;;;25.48;3.47;;;;;;;;;;5039543;28;20033;-55
2022/01/13 00:34:36;;;;;;;30.83;4.35;;;;;;;;;;5034950;28;20037;-55
2022/01/13 00:37:02;;;;;;;9.90;3.53;;;;;;;;;;5037735;28;20048;-56
2022/01/13 00:39:27;;;;;;;22.50;3.90;;;;;;;;;;5039559;28;20037;-55
2022/01/13 00:41:53;;;;;;;14.02;3.33;;;;;;;;;;5039541;28;20400;-54
2022/01/13 00:44:21;;;;;;;17.08;3.53;;;;;;;;;;4970177;28;1496654;-56
2022/01/13 00:46:56;;;;;;;13.93;4.65;;;;;;;;;;5041932;28;20215;-54
2022/01/13 00:49:22;;;;;;;21.02;3.40;;;;;;;;;;5036511;28;20090;-53
2022/01/13 00:51:48;;;;;;;14.57;3.72;;;;;;;;;;5036947;28;20609;-55
2022/01/13 00:54:13;;;;;;;10.70;3.17;;;;;;;;;;5040995;28;20079;-55
2022/01/13 00:56:39;;;;;;;12.15;2.60;;;;;;;;;;5039539;28;20555;-55
2022/01/13 00:59:14;;;;;;;15.10;2.75;;;;;;;;;;5037014;28;20495;-55
2022/01/13 01:01:42;;;;;;;20.85;3.75;;;;;;;;;;5035195;28;20056;-56
2022/01/13 01:04:09;;;;;;;9.88;2.70;;;;;;;;;;5038169;28;20522;-55
2022/01/13 01:06:35;;;;;;;12.38;2.55;;;;;;;;;;5036743;28;20039;-56
2022/01/13 01:09:01;;;;;;;10.57;2.28;;;;;;;;;;5040167;28;20036;-55
2022/01/13 01:11:27;;;;;;;11.48;2.28;;;;;;;;;;5040495;28;20030;-56
2022/01/13 01:13:54;;;;;;;10.27;2.40;;;;;;;;;;5038411;28;20024;-55
2022/01/13 01:16:20;;;;;;;15.25;2.55;;;;;;;;;;5041089;28;20057;-56
2022/01/13 01:28:57;;;;;;;11.38;1.90;;;;;;;;;;5035780;28;20485;-56
2022/01/13 01:31:28;;;;;;;10.95;2.05;;;;;;;;;;5037266;28;20102;-56
2022/01/13 01:34:18;;;;;;;7.38;2.03;;;;;;;;;;5034999;28;20480;-56
2022/01/13 01:36:44;;;;;;;9.50;1.95;;;;;;;;;;5032445;28;20033;-57
2022/01/13 01:39:11;;;;;;;13.35;2.17;;;;;;;;;;5034927;28;20032;-55
2022/01/13 01:41:39;;;;;;;8.32;1.55;;;;;;;;;;5034937;28;20305;-55
2022/01/13 01:44:13;;;;;;;10.65;2.08;;;;;;;;;;5037511;28;20064;-56
2022/01/13 01:46:43;;;;;;;16.95;2.08;;;;;;;;;;5034798;28;20063;-56
2022/01/13 01:49:18;;;;;;;7.28;1.35;;;;;;;;;;5033115;28;20037;-54
2022/01/13 01:51:46;;;;;;;6.53;1.70;;;;;;;;;;5037505;28;20144;-55
2022/01/13 01:54:12;;;;;;;22.58;2.20;;;;;;;;;;5036836;28;20094;-56
2022/01/13 01:56:39;;;;;;;17.20;2.10;;;;;;;;;;5032742;28;20028;-55
2022/01/13 01:59:11;;;;;;;19.30;2.47;;;;;;;;;;5034349;28;20314;-54
2022/01/13 02:01:37;;;;;;;15.88;1.75;;;;;;;;;;5040369;28;20041;-54
2022/01/13 02:04:03;;;;;;;8.63;1.90;;;;;;;;;;5036484;28;20055;-56
2022/01/13 02:06:28;;;;;;;15.15;2.08;;;;;;;;;;5035067;28;20029;-57
2022/01/13 02:08:56;;;;;;;10.20;1.90;;;;;;;;;;5036011;28;20028;-56
2022/01/13 02:11:22;;;;;;;10.38;2.20;;;;;;;;;;5032658;28;20048;-56
2022/01/13 02:13:52;;;;;;;15.05;2.00;;;;;;;;;;5036545;28;20018;-55
2022/01/13 02:18:55;;;;;;;22.70;2.28;;;;;;;;;;5036349;28;20032;-54
2022/01/13 02:21:21;;;;;;;16.27;2.47;;;;;;;;;;5039047;28;20025;-55
2022/01/13 02:23:46;;;;;;;13.07;2.15;;;;;;;;;;5032950;28;20354;-55
2022/01/13 02:26:12;;;;;;;23.83;2.10;;;;;;;;;;5036555;28;20445;-55
2022/01/13 02:28:38;;;;;;;11.38;2.05;;;;;;;;;;5034437;28;20233;-54
2022/01/13 02:31:04;;;;;;;13.63;2.10;;;;;;;;;;5043505;28;20087;-57
2022/01/13 02:33:30;;;;;;;13.43;2.33;;;;;;;;;;5035068;28;20033;-56
2022/01/13 02:35:56;;;;;;;10.00;1.92;;;;;;;;;;5035585;28;20083;-55
2022/01/13 02:38:21;;;;;;;8.10;2.10;;;;;;;;;;5034779;28;20033;-54
2022/01/13 02:40:58;;;;;;;11.95;1.65;;;;;;;;;;5039350;28;20039;-55
2022/01/13 02:43:26;;;;;;;16.85;2.63;;;;;;;;;;5034458;28;20041;-55
2022/01/13 02:48:39;;;;;;;10.07;2.00;;;;;;;;;;5036174;28;20049;-53
2022/01/13 02:51:04;;;;;;;9.85;1.85;;;;;;;;;;5034326;28;20041;-55
2022/01/13 02:53:30;;;;;;;17.48;2.17;;;;;;;;;;5038250;28;20102;-54
2022/01/13 02:56:01;;;;;;;22.20;2.05;;;;;;;;;;5039797;28;20033;-54
2022/01/13 02:58:26;;;;;;;10.27;2.40;;;;;;;;;;5036851;28;20052;-54
2022/01/13 03:00:52;;;;;;;19.33;3.05;;;;;;;;;;5036160;28;20074;-55
2022/01/13 03:03:19;;;;;;;20.17;1.77;;;;;;;;;;5035608;28;21664;-55
2022/01/13 03:05:44;;;;;;;9.98;1.98;;;;;;;;;;5038445;28;20617;-55
2022/01/13 03:08:11;;;;;;;13.50;1.45;;;;;;;;;;5036629;28;20150;-54
2022/01/13 03:10:36;;;;;;;10.25;2.53;;;;;;;;;;5035511;28;20063;-56
2022/01/13 03:13:03;;;;;;;11.57;2.15;;;;;;;;;;5038570;28;20116;-54
2022/01/13 03:15:29;;;;;;;18.85;1.70;;;;;;;;;;5036368;28;20143;-53
2022/01/13 03:17:54;;;;;;;20.88;2.53;;;;;;;;;;5035216;28;20579;-55
2022/01/13 03:20:20;;;;;;;18.17;2.13;;;;;;;;;;5036410;28;20280;-53
2022/01/13 03:22:46;;;;;;;11.88;2.45;;;;;;;;;;5037367;28;20091;-55
2022/01/13 03:25:12;;;;;;;15.23;2.90;;;;;;;;;;5036345;28;20487;-56
2022/01/13 03:27:40;;;;;;;11.05;2.53;;;;;;;;;;5038867;28;20393;-54
2022/01/13 03:30:08;;;;;;;12.55;2.15;;;;;;;;;;5038430;28;20033;-55
2022/01/13 03:32:35;;;;;;;20.13;2.30;;;;;;;;;;5042940;28;20028;-55
2022/01/13 03:35:01;;;;;;;15.35;2.10;;;;;;;;;;5038122;28;20326;-55
2022/01/13 03:37:28;;;;;;;9.85;1.77;;;;;;;;;;5040487;28;20408;-55
2022/01/13 03:39:54;;;;;;;14.57;1.73;;;;;;;;;;5037557;28;20106;-54
2022/01/13 03:42:20;;;;;;;5.13;1.83;;;;;;;;;;5035296;28;20037;-55
2022/01/13 03:44:46;;;;;;;14.40;2.92;;;;;;;;;;5040050;28;20025;-54
2022/01/13 03:47:13;;;;;;;15.55;2.20;;;;;;;;;;5037783;28;20372;-54
2022/01/13 03:49:39;;;;;;;16.98;2.30;;;;;;;;;;5039665;28;20485;-55
2022/01/13 03:52:31;;;;;;;11.00;2.38;;;;;;;;;;5043362;28;20032;-55
2022/01/13 03:55:19;;;;;;;29.05;2.88;;;;;;;;;;5043074;28;20068;-55
2022/01/13 03:58:10;;;;;;;29.10;2.65;;;;;;;;;;5039131;28;20025;-54
2022/01/13 04:01:28;;;;;;;18.80;3.17;;;;;;;;;;5042607;28;20086;-54
2022/01/13 04:03:53;;;;;;;16.83;2.17;;;;;;;;;;5039119;28;20029;-54
2022/01/13 04:06:22;;;;;;;26.33;3.00;;;;;;;;;;5042327;28;20715;-55
2022/01/13 04:08:49;;;;;;;20.42;2.50;;;;;;;;;;5036865;28;20025;-55
2022/01/13 04:11:32;;;;;;;18.08;2.83;;;;;;;;;;5069920;28;20416;-54
2022/01/13 04:14:02;;;;;;;7.82;1.90;;;;;;;;;;5036441;28;20029;-53
2022/01/13 04:16:34;;;;;;;9.07;2.20;;;;;;;;;;5040872;28;20040;-55
2022/01/13 04:19:04;;;;;;;16.05;2.63;;;;;;;;;;5040140;28;20118;-52
2022/01/13 04:21:35;;;;;;;16.17;3.05;;;;;;;;;;5040611;28;20407;-53
2022/01/13 04:24:02;;;;;;;8.88;2.42;;;;;;;;;;5035714;28;20065;-55
2022/01/13 04:26:29;;;;;;;14.93;3.63;;;;;;;;;;5036840;28;20032;-55
2022/01/13 04:29:17;;;;;;;16.63;4.07;;;;;;;;;;5040449;28;20036;-54
2022/01/13 04:31:45;;;;;;;11.18;3.15;;;;;;;;;;5040689;28;20025;-53
2022/01/13 04:34:11;;;;;;;12.32;3.67;;;;;;;;;;5041767;28;20083;-53
2022/01/13 04:36:37;;;;;;;15.40;4.13;;;;;;;;;;5042435;28;20520;-55
2022/01/13 04:39:05;;;;;;;20.95;3.53;;;;;;;;;;5035079;28;20095;-53
2022/01/13 04:41:33;;;;;;;17.95;4.22;;;;;;;;;;5036868;28;20184;-54
2022/01/13 04:43:58;;;;;;;15.40;3.50;;;;;;;;;;5037814;28;20053;-52
2022/01/13 04:46:24;;;;;;;14.55;3.25;;;;;;;;;;5039100;28;20500;-54
2022/01/13 04:48:50;;;;;;;18.05;3.35;;;;;;;;;;5035656;28;20172;-55
2022/01/13 04:51:15;;;;;;;21.38;4.47;;;;;;;;;;5040666;28;20045;-54
2022/01/13 04:53:41;;;;;;;16.83;3.60;;;;;;;;;;5040660;28;20067;-54
2022/01/13 04:56:14;;;;;;;35.33;4.78;;;;;;;;;;5034816;28;20044;-56
2022/01/13 04:58:40;;;;;;;19.33;4.25;;;;;;;;;;5042389;28;20464;-55
2022/01/13 05:01:05;;;;;;;15.20;4.07;;;;;;;;;;5067706;28;20078;-54
2022/01/13 05:03:31;;;;;;;19.73;3.58;;;;;;;;;;5036291;28;20063;-55
2022/01/13 05:05:56;;;;;;;12.23;4.47;;;;;;;;;;5038244;28;20041;-55
2022/01/13 05:08:22;;;;;;;17.98;4.25;;;;;;;;;;5037928;28;20037;-55
2022/01/13 05:10:47;;;;;;;20.42;3.90;;;;;;;;;;5039854;28;20029;-54
2022/01/13 05:13:13;;;;;;;23.23;5.03;;;;;;;;;;5036501;28;20526;-57
2022/01/13 05:15:40;;;;;;;30.08;5.28;;;;;;;;;;5034917;28;20466;-54
2022/01/13 05:21:01;;;;;;;24.00;4.63;;;;;;;;;;5035848;28;20217;-54
2022/01/13 05:23:26;;;;;;;23.13;5.65;;;;;;;;;;5033762;28;20027;-55
2022/01/13 05:25:52;;;;;;;20.60;5.25;;;;;;;;;;5040503;28;20029;-54
2022/01/13 05:28:17;;;;;;;21.77;4.82;;;;;;;;;;5038723;28;20400;-53
2022/01/13 05:30:43;;;;;;;12.63;4.30;;;;;;;;;;5037417;28;20079;-55
2022/01/13 05:33:09;;;;;;;21.80;4.53;;;;;;;;;;5037072;28;20044;-55
2022/01/13 05:35:36;;;;;;;17.08;4.88;;;;;;;;;;5036171;28;20021;-54
2022/01/13 05:38:03;;;;;;;18.60;4.63;;;;;;;;;;5038883;28;20033;-55
2022/01/13 05:40:29;;;;;;;18.67;4.82;;;;;;;;;;5043198;28;20033;-52
2022/01/13 05:42:55;;;;;;;26.77;4.47;;;;;;;;;;5034527;28;20053;-54
2022/01/13 05:45:24;;;;;;;25.25;5.13;;;;;;;;;;5039862;28;20500;-54
2022/01/13 05:47:50;;;;;;;22.52;4.07;;;;;;;;;;5033975;28;20037;-55
2022/01/13 05:50:18;;;;;;;16.73;5.13;;;;;;;;;;5036764;28;20070;-53
2022/01/13 05:52:44;;;;;;;13.98;4.50;;;;;;;;;;5040114;28;20021;-54
2022/01/13 05:55:10;;;;;;;30.33;5.45;;;;;;;;;;5038187;28;20388;-55
2022/01/13 05:57:35;;;;;;;24.02;6.13;;;;;;;;;;5040673;28;20063;-54
2022/01/13 06:00:01;;;;;;;25.08;5.90;;;;;;;;;;5037502;28;20494;-56
2022/01/13 06:02:26;;;;;;;25.48;6.07;;;;;;;;;;5033568;28;20064;-55
2022/01/13 06:04:52;;;;;;;24.52;6.65;;;;;;;;;;5046751;28;20389;-54
2022/01/13 06:07:17;;;;;;;26.25;6.25;;;;;;;;;;5036429;28;20029;-55
2022/01/13 06:09:43;;;;;;;22.17;6.30;;;;;;;;;;5039294;28;20391;-54
2022/01/13 06:12:09;;;;;;;20.88;6.63;;;;;;;;;;5035540;28;20052;-54
2022/01/13 06:14:35;;;;;;;29.58;6.60;;;;;;;;;;5032785;28;20136;-55
2022/01/13 06:17:00;;;;;;;24.63;6.47;;;;;;;;;;5039572;28;20569;-54
2022/01/13 06:19:26;;;;;;;20.58;5.25;;;;;;;;;;5037104;28;20253;-55
2022/01/13 06:21:51;;;;;;;20.60;6.45;;;;;;;;;;5041099;28;20041;-54
2022/01/13 06:24:17;;;;;;;36.47;6.18;;;;;;;;;;5034723;28;20423;-54
2022/01/13 06:26:43;;;;;;;24.45;6.60;;;;;;;;;;5036825;28;20033;-55
2022/01/13 06:29:08;;;;;;;15.38;6.43;;;;;;;;;;5035094;28;20024;-53
2022/01/13 06:31:34;;;;;;;20.58;5.45;;;;;;;;;;5036860;28;20451;-52
2022/01/13 06:33:59;;;;;;;23.38;6.30;;;;;;;;;;5034281;28;20460;-56
2022/01/13 06:36:25;;;;;;;23.92;5.65;;;;;;;;;;5035203;28;20271;-54
2022/01/13 06:38:51;;;;;;;39.15;7.32;;;;;;;;;;5036918;28;20107;-54
2022/01/13 06:41:18;;;;;;;30.45;5.43;;;;;;;;;;5037588;28;20037;-54
2022/01/13 06:43:44;;;;;;;24.25;6.03;;;;;;;;;;5036700;28;20053;-54
2022/01/13 06:46:15;;;;;;;25.58;6.07;;;;;;;;;;5036456;28;20042;-55
2022/01/13 06:48:41;;;;;;;25.67;5.30;;;;;;;;;;5038412;28;20037;-54
2022/01/13 06:51:07;;;;;;;27.30;6.53;;;;;;;;;;5038524;28;20484;-55
2022/01/13 06:53:32;;;;;;;26.23;4.95;;;;;;;;;;5039647;28;20041;-53
2022/01/13 06:55:58;;;;;;;32.22;5.28;;;;;;;;;;5038115;28;20092;-53
2022/01/13 06:58:23;;;;;;;39.95;5.75;;;;;;;;;;5037104;28;20237;-55
2022/01/13 07:00:49;;;;;;;29.00;5.22;;;;;;;;;;5035973;28;20095;-54
2022/01/13 07:03:14;;;;;;;18.63;4.82;;;;;;;;;;5036283;28;20032;-54
2022/01/13 07:05:40;;;;;;;24.70;4.75;;;;;;;;;;5041600;28;20498;-54
2022/01/13 07:08:10;;;;;;;32.85;5.63;;;;;;;;;;5045570;28;20048;-54
2022/01/13 07:10:36;;;;;;;28.70;4.88;;;;;;;;;;5041735;28;20130;-53
2022/01/13 07:13:02;;;;;;;23.20;4.93;;;;;;;;;;5048477;28;20068;-52
2022/01/13 07:15:28;;;;;;;19.95;5.25;;;;;;;;;;5045140;28;20462;-53
2022/01/13 07:17:54;;;;;;;37.55;5.00;;;;;;;;;;5041888;28;20040;-54
2022/01/13 07:20:20;;;;;;;19.38;4.25;;;;;;;;;;5038384;28;20577;-52
2022/01/13 07:22:46;;;;;;;20.55;4.13;;;;;;;;;;5042897;28;20052;-54
2022/01/13 07:25:11;;;;;;;23.67;4.10;;;;;;;;;;5041855;28;20017;-54
2022/01/13 07:27:38;;;;;;;24.88;3.70;;;;;;;;;;5045719;28;20055;-55
2022/01/13 07:30:04;;;;;;;23.00;3.50;;;;;;;;;;5040483;28;20240;-52
2022/01/13 07:32:29;;;;;;;38.63;4.47;;;;;;;;;;5044496;28;20029;-55
2022/01/13 07:34:55;;;;;;;29.05;4.18;;;;;;;;;;5037964;28;20036;-54
2022/01/13 07:37:24;;;;;;;35.03;3.92;;;;;;;;;;5038310;28;20052;-54
2022/01/13 07:39:50;;;;;;;40.38;4.07;;;;;;;;;;5037691;28;20068;-55
2022/01/13 07:42:16;;;;;;;36.03;3.88;;;;;;;;;;5041238;28;20021;-53
2022/01/13 07:44:43;;;;;;;28.70;3.58;;;;;;;;;;5038652;28;20051;-54
2022/01/13 07:47:08;;;;;;;34.15;3.92;;;;;;;;;;5038190;28;20036;-52
2022/01/13 07:49:36;;;;;;;19.95;3.25;;;;;;;;;;5039022;28;20480;-54
2022/01/13 07:52:03;;;;;;;26.58;3.08;;;;;;;;;;5043018;28;20037;-55
2022/01/13 07:54:30;;;;;;;31.55;3.97;;;;;;;;;;5039317;28;20551;-55
2022/01/13 07:56:57;;;;;;;25.67;3.75;;;;;;;;;;5036030;28;20044;-56
2022/01/13 07:59:27;;;;;;;32.97;4.63;;;;;;;;;;5040234;28;20037;-53
2022/01/13 08:01:54;;;;;;;32.13;3.85;;;;;;;;;;5034967;28;20107;-55
2022/01/13 08:04:19;;;;;;;14.48;3.25;;;;;;;;;;5037588;28;20029;-56
2022/01/13 08:06:45;;;;;;;24.25;3.03;;;;;;;;;;5040518;28;20258;-54
2022/01/13 08:09:10;;;;;;;22.85;2.88;;;;;;;;;;5034641;28;20124;-55
2022/01/13 08:11:36;;;;;;;34.90;4.10;;;;;;;;;;5039070;28;20152;-55
2022/01/13 08:14:01;;;;;;;38.75;3.72;;;;;;;;;;5042201;28;20356;-55
2022/01/13 08:16:32;;;;;;;17.08;2.72;;;;;;;;;;5044787;28;20033;-54
2022/01/13 08:21:43;;;;;;;18.85;2.35;;;;;;;;;;5039324;28;20045;-53
2022/01/13 08:24:08;;;;;;;19.52;3.00;;;;;;;;;;5045695;28;20052;-55
2022/01/13 08:26:34;;;;;;;24.15;2.83;;;;;;;;;;5040295;28;20029;-55
2022/01/13 08:28:59;;;;;;;19.15;3.17;;;;;;;;;;5042462;28;20033;-52
2022/01/13 08:31:25;;;;;;;14.25;2.42;;;;;;;;;;5043091;28;20029;-54
2022/01/13 08:33:50;;;;;;;27.35;3.10;;;;;;;;;;5045449;28;20043;-54
2022/01/13 08:36:15;;;;;;;31.02;3.83;;;;;;;;;;5044117;28;20033;-56
2022/01/13 08:38:41;;;;;;;27.98;4.05;;;;;;;;;;5043158;28;20116;-54
2022/01/13 08:41:06;;;;;;;33.42;3.50;;;;;;;;;;5045232;28;20120;-53
2022/01/13 08:43:34;;;;;;;16.58;3.33;;;;;;;;;;5042305;28;20041;-55
2022/01/13 08:46:00;;;;;;;30.88;3.05;;;;;;;;;;5044747;28;20130;-54
2022/01/13 08:48:25;;;;;;;37.38;3.50;;;;;;;;;;5043973;28;20476;-55
2022/01/13 08:50:51;;;;;;;24.45;2.88;;;;;;;;;;5043840;28;20628;-54
2022/01/13 08:53:18;;;;;;;18.48;3.22;;;;;;;;;;5047804;28;20583;-54
2022/01/13 08:55:44;;;;;;;23.10;3.53;;;;;;;;;;5040421;28;20130;-54
2022/01/13 08:58:10;;;;;;;14.48;2.63;;;;;;;;;;5045012;28;20036;-55
2022/01/13 09:00:37;;;;;;;20.10;3.33;;;;;;;;;;5042035;28;20032;-55
2022/01/13 09:03:07;;;;;;;19.60;2.80;;;;;;;;;;5048096;28;20392;-54
2022/01/13 09:05:33;;;;;;;18.50;2.80;;;;;;;;;;5074023;28;20186;-55
2022/01/13 09:07:59;;;;;;;22.40;3.67;;;;;;;;;;5039503;28;20045;-54
2022/01/13 09:10:24;;;;;;;26.27;2.63;;;;;;;;;;5040794;28;20123;-55
2022/01/13 09:12:50;;;;;;;22.40;2.53;;;;;;;;;;5043354;28;20032;-54
2022/01/13 09:15:30;;;;;;;24.90;2.75;;;;;;;;;;5042820;28;20135;-55
2022/01/13 09:17:56;;;;;;;20.85;3.60;;;;;;;;;;5041966;28;20155;-55
2022/01/13 09:20:21;;;;;;;27.17;3.35;;;;;;;;;;5040744;28;20135;-52
2022/01/13 09:22:47;;;;;;;24.92;3.08;;;;;;;;;;5045936;28;20032;-55
2022/01/13 09:25:13;;;;;;;29.80;3.28;;;;;;;;;;5040122;28;20144;-55
2022/01/13 09:27:40;;;;;;;18.20;3.08;;;;;;;;;;5043104;28;20051;-52
2022/01/13 09:30:09;;;;;;;20.38;2.70;;;;;;;;;;5041948;28;20045;-54
2022/01/13 09:32:36;;;;;;;31.75;3.75;;;;;;;;;;5041853;28;20040;-53
2022/01/13 09:35:06;;;;;;;19.08;2.97;;;;;;;;;;5042588;28;20040;-52
2022/01/13 09:37:32;;;;;;;16.55;2.33;;;;;;;;;;5038880;28;20024;-52
2022/01/13 09:39:58;;;;;;;18.77;4.20;;;;;;;;;;5042873;28;20032;-53
2022/01/13 09:42:26;;;;;;;24.15;2.92;;;;;;;;;;5041403;28;20028;-53
2022/01/13 09:44:53;;;;;;;16.48;4.10;;;;;;;;;;5039627;28;20041;-53
2022/01/13 09:47:19;;;;;;;22.55;4.20;;;;;;;;;;5043748;28;20037;-53
2022/01/13 09:49:45;;;;;;;17.77;3.75;;;;;;;;;;5044283;28;20303;-52
2022/01/13 09:52:11;;;;;;;55.53;6.38;;;;;;;;;;5040803;28;20140;-52
2022/01/13 09:54:36;;;;;;;13.30;3.05;;;;;;;;;;5033738;28;20387;-53
2022/01/13 09:57:02;;;;;;;38.72;3.28;;;;;;;;;;5037345;28;20650;-52
2022/01/13 09:59:27;;;;;;;13.07;3.35;;;;;;;;;;5039564;28;20489;-52
2022/01/13 10:01:53;;;;;;;17.23;3.75;;;;;;;;;;5036864;28;20499;-52
2022/01/13 10:04:19;;;;;;;16.75;2.80;;;;;;;;;;5038608;28;20346;-50
2022/01/13 10:06:47;;;;;;;14.27;2.95;;;;;;;;;;5041148;28;20036;-53
2022/01/13 10:09:14;;;;;;;16.35;2.88;;;;;;;;;;5040320;28;20202;-56
2022/01/13 10:11:53;;;;;;;7.47;2.80;;;;;;;;;;5042314;28;20032;-56
2022/01/13 10:16:55;;;;;;;24.05;4.32;;;;;;;;;;5039321;28;20040;-57
2022/01/13 10:19:42;;;;;;;16.73;2.92;;;;;;;;;;5042646;28;20503;-57
2022/01/13 10:22:16;;;;;;;19.08;2.00;;;;;;;;;;5044339;28;20020;-57
2022/01/13 10:24:44;;;;;;;17.52;2.80;;;;;;;;;;5043460;28;20111;-57
2022/01/13 10:27:39;;;;;;;11.40;2.70;;;;;;;;;;5038176;28;20033;-57
2022/01/13 10:30:16;;;;;;;54.80;4.85;;;;;;;;;;5043405;28;20120;-57
2022/01/13 10:32:45;;;;;;;13.73;3.35;;;;;;;;;;5040600;28;20037;-57
2022/01/13 10:35:14;;;;;;;15.02;3.05;;;;;;;;;;5043210;28;20024;-57
2022/01/13 10:37:42;;;;;;;12.80;2.38;;;;;;;;;;5047874;28;20486;-56
2022/01/13 10:40:12;;;;;;;12.80;2.60;;;;;;;;;;5045253;28;20036;-57
2022/01/13 10:45:10;;;;;;;10.68;1.92;;;;;;;;;;5048036;28;20090;-56
2022/01/13 10:47:37;;;;;;;15.32;2.30;;;;;;;;;;5076763;28;20094;-56
2022/01/13 10:50:09;;;;;;;8.52;1.77;;;;;;;;;;5049095;28;20453;-57
2022/01/13 10:52:35;;;;;;;14.52;2.92;;;;;;;;;;5042921;28;20032;-53
2022/01/13 10:55:05;;;;;;;8.77;2.33;;;;;;;;;;5079035;28;20464;-57
2022/01/13 10:57:32;;;;;;;18.48;2.50;;;;;;;;;;5047417;28;20025;-53
2022/01/13 10:59:58;;;;;;;19.55;2.95;;;;;;;;;;5038950;28;20033;-57
2022/01/13 11:02:27;;;;;;;17.30;2.95;;;;;;;;;;5031377;28;20029;-55
2022/01/13 11:04:53;;;;;;;5.22;1.92;;;;;;;;;;5037490;28;20045;-56
2022/01/13 11:07:20;;;;;;;18.98;2.63;;;;;;;;;;5043132;28;20090;-55
2022/01/13 11:09:54;;;;;;;13.65;1.90;;;;;;;;;;5035026;28;20091;-56
2022/01/13 11:12:30;;;;;;;10.48;2.25;;;;;;;;;;5037174;28;20051;-56
2022/01/13 11:15:00;;;;;;;15.00;2.97;;;;;;;;;;5043095;28;20095;-56
2022/01/13 11:17:28;;;;;;;13.52;2.25;;;;;;;;;;5036898;28;20060;-56
2022/01/13 11:19:57;;;;;;;18.60;2.60;;;;;;;;;;5038860;28;20025;-56
2022/01/13 11:22:23;;;;;;;16.80;1.92;;;;;;;;;;5039979;28;20031;-55
2022/01/13 11:24:49;;;;;;;19.35;3.25;;;;;;;;;;5036693;28;20474;-56
2022/01/13 11:27:17;;;;;;;15.52;2.38;;;;;;;;;;5039459;28;20032;-56
2022/01/13 11:29:45;;;;;;;8.98;2.55;;;;;;;;;;5038419;28;20021;-56
2022/01/13 11:32:11;;;;;;;15.07;3.05;;;;;;;;;;5038872;28;20057;-56
2022/01/13 11:34:38;;;;;;;18.70;2.72;;;;;;;;;;5034806;28;20457;-56
2022/01/13 11:37:04;;;;;;;22.75;3.40;;;;;;;;;;5042124;28;20442;-56
2022/01/13 11:39:40;;;;;;;26.88;2.65;;;;;;;;;;5040763;28;20044;-57
2022/01/13 11:42:09;;;;;;;12.25;2.60;;;;;;;;;;5041421;28;20033;-56
2022/01/13 11:44:35;;;;;;;16.75;3.25;;;;;;;;;;5045646;28;20045;-56
2022/01/13 11:47:07;;;;;;;10.90;2.33;;;;;;;;;;5042567;28;20143;-57
2022/01/13 11:49:42;;;;;;;10.25;2.85;;;;;;;;;;5042964;28;20033;-56
2022/01/13 11:54:38;;;;;;;14.52;2.38;;;;;;;;;;5043622;28;20029;-56
2022/01/13 11:57:06;;;;;;;18.55;2.80;;;;;;;;;;5046786;28;20021;-55
2022/01/13 11:59:32;;;;;;;18.48;2.67;;;;;;;;;;5076216;28;20021;-55
2022/01/13 12:02:30;;;;;;;14.18;2.40;;;;;;;;;;5044626;28;20032;-55
2022/01/13 12:05:14;;;;;;;16.30;2.60;;;;;;;;;;5044726;28;20025;-56
2022/01/13 12:07:45;;;;;;;19.25;3.35;;;;;;;;;;5041062;28;20040;-56
2022/01/13 12:10:35;;;;;;;9.57;2.20;;;;;;;;;;5044233;28;20383;-56
2022/01/13 12:13:31;;;;;;;17.92;2.90;;;;;;;;;;5045268;28;20028;-56
2022/01/13 12:15:57;;;;;;;14.85;3.22;;;;;;;;;;5043306;28;20110;-56
2022/01/13 12:19:09;;;;;;;10.90;2.58;;;;;;;;;;5039523;28;20028;-56
2022/01/13 12:21:40;;;;;;;7.60;2.42;;;;;;;;;;5041632;28;20079;-55
2022/01/13 12:24:07;;;;;;;12.52;4.47;;;;;;;;;;5042166;28;20492;-56
2022/01/13 12:26:32;;;;;;;27.23;3.38;;;;;;;;;;5043939;28;20029;-56
2022/01/13 12:29:10;;;;;;;13.00;2.72;;;;;;;;;;5045066;28;20044;-56
2022/01/13 12:32:04;;;;;;;16.90;2.67;;;;;;;;;;5046997;28;20028;-56
2022/01/13 12:34:32;;;;;;;16.38;2.78;;;;;;;;;;5045558;28;20072;-56
2022/01/13 12:37:00;;;;;;;9.82;3.05;;;;;;;;;;5046393;28;20020;-56
2022/01/13 12:39:27;;;;;;;18.67;2.80;;;;;;;;;;5043215;28;20028;-56
2022/01/13 12:42:01;;;;;;;15.10;3.10;;;;;;;;;;5041838;28;20039;-56
2022/01/13 12:47:13;;;;;;;15.48;3.42;;;;;;;;;;5043151;28;20114;-56
2022/01/13 12:49:39;;;;;;;14.55;3.20;;;;;;;;;;5042057;28;20027;-56
2022/01/13 12:52:06;;;;;;;18.00;2.40;;;;;;;;;;5043618;28;20057;-56
2022/01/13 12:54:32;;;;;;;21.90;2.60;;;;;;;;;;5045270;28;20021;-56
2022/01/13 12:57:06;;;;;;;15.77;3.53;;;;;;;;;;5044427;28;20029;-56
2022/01/13 12:59:32;;;;;;;19.38;2.50;;;;;;;;;;5036880;28;20090;-56
2022/01/13 13:02:02;;;;;;;9.90;2.30;;;;;;;;;;5045535;28;20583;-57
2022/01/13 13:04:30;;;;;;;15.50;2.13;;;;;;;;;;5041877;28;20025;-56
2022/01/13 13:06:56;;;;;;;11.27;2.17;;;;;;;;;;5040661;28;20142;-56
2022/01/13 13:09:25;;;;;;;13.27;2.25;;;;;;;;;;5039634;28;20120;-56
2022/01/13 13:11:56;;;;;;;16.85;2.80;;;;;;;;;;5040327;28;20040;-56
2022/01/13 13:15:39;;;;;;;9.75;2.72;;;;;;;;;;5035867;28;22637;-56
2022/01/13 13:17:33;;;;;;;15.13;2.53;;;;;;;;;;5039252;28;20108;-56
2022/01/13 13:19:59;;;;;;;19.27;3.88;;;;;;;;;;5045976;28;20033;-56
2022/01/13 13:22:25;;;;;;;18.77;3.33;;;;;;;;;;5037837;28;20037;-56
2022/01/13 13:24:51;;;;;;;11.45;2.95;;;;;;;;;;5042555;28;20048;-56
2022/01/13 13:27:42;;;;;;;11.23;2.63;;;;;;;;;;5043009;28;20033;-56
2022/01/13 13:30:08;;;;;;;17.60;3.20;;;;;;;;;;5037756;28;20037;-56
2022/01/13 13:32:34;;;;;;;14.05;3.05;;;;;;;;;;5045173;28;20471;-56
2022/01/13 13:34:59;;;;;;;20.20;4.55;;;;;;;;;;5040464;28;20040;-56
2022/01/13 13:37:25;;;;;;;12.00;2.72;;;;;;;;;;5038903;28;20055;-56
2022/01/13 13:39:50;;;;;;;7.80;2.70;;;;;;;;;;5039526;28;20496;-56
2022/01/13 13:42:16;;;;;;;14.80;3.60;;;;;;;;;;5039305;28;20521;-56
2022/01/13 13:44:42;;;;;;;11.85;3.13;;;;;;;;;;5025795;28;20049;-56
2022/01/13 13:47:13;;;;;;;10.18;2.13;;;;;;;;;;5046595;28;20048;-56
2022/01/13 13:49:40;;;;;;;17.35;3.08;;;;;;;;;;5041649;28;20147;-56
2022/01/13 13:52:08;;;;;;;16.65;3.42;;;;;;;;;;5042417;28;20098;-56
2022/01/13 13:54:48;;;;;;;16.02;3.15;;;;;;;;;;5041825;28;20029;-56
2022/01/13 13:57:15;;;;;;;14.30;3.13;;;;;;;;;;5044537;28;20029;-56
2022/01/13 13:59:46;;;;;;;18.55;3.08;;;;;;;;;;5040283;28;20292;-56
2022/01/13 14:02:13;;;;;;;15.13;2.67;;;;;;;;;;5042779;28;20032;-55
2022/01/13 14:04:49;;;;;;;17.20;2.90;;;;;;;;;;5041907;28;20037;-55
2022/01/13 14:07:36;;;;;;;11.55;3.15;;;;;;;;;;5042582;28;20036;-56
2022/01/13 14:10:08;;;;;;;16.73;2.50;;;;;;;;;;5043901;28;20552;-56
2022/01/13 14:12:38;;;;;;;9.35;2.80;;;;;;;;;;5041349;28;20551;-56
2022/01/13 14:15:13;;;;;;;20.73;3.65;;;;;;;;;;5046032;28;20013;-56
2022/01/13 14:17:40;;;;;;;17.63;4.00;;;;;;;;;;5041241;28;20101;-56
2022/01/13 14:20:17;;;;;;;20.25;4.03;;;;;;;;;;5040292;28;20501;-56
2022/01/13 14:22:43;;;;;;;14.93;3.00;;;;;;;;;;5033341;28;20099;-56
2022/01/13 14:25:11;;;;;;;8.65;3.00;;;;;;;;;;5036703;28;20033;-56
2022/01/13 14:28:05;;;;;;;13.45;3.80;;;;;;;;;;5034754;28;20028;-56
2022/01/13 14:30:38;;;;;;;12.77;3.60;;;;;;;;;;5036001;28;20033;-56
2022/01/13 14:33:32;;;;;;;13.93;3.92;;;;;;;;;;5039647;28;20466;-56
2022/01/13 14:36:17;;;;;;;12.13;3.20;;;;;;;;;;5040225;28;20167;-56
2022/01/13 14:38:57;;;;;;;19.38;3.63;;;;;;;;;;5074364;28;20029;-56
2022/01/13 14:41:25;;;;;;;19.38;4.90;;;;;;;;;;5042496;28;20258;-56
2022/01/13 14:44:09;;;;;;;6.88;3.17;;;;;;;;;;5041837;28;20140;-56
2022/01/13 14:46:37;;;;;;;11.13;3.30;;;;;;;;;;5042592;28;20139;-55
2022/01/13 14:49:04;;;;;;;15.32;3.75;;;;;;;;;;5035702;28;20032;-56
2022/01/13 14:51:31;;;;;;;11.95;3.80;;;;;;;;;;5033197;28;20033;-56
2022/01/13 14:53:59;;;;;;;18.55;3.97;;;;;;;;;;5043102;28;20049;-56
2022/01/13 14:56:25;;;;;;;15.00;3.63;;;;;;;;;;5038328;28;20029;-56
2022/01/13 14:58:52;;;;;;;21.65;4.25;;;;;;;;;;5037605;28;20167;-55
2022/01/13 15:01:18;;;;;;;19.55;3.95;;;;;;;;;;5037536;28;20552;-55
2022/01/13 15:03:45;;;;;;;17.83;3.35;;;;;;;;;;5036081;28;20569;-56
2022/01/13 15:06:11;;;;;;;9.90;2.70;;;;;;;;;;5040692;28;20484;-56
2022/01/13 15:08:38;;;;;;;13.43;3.38;;;;;;;;;;5036294;28;20041;-55
2022/01/13 15:11:04;;;;;;;13.65;4.07;;;;;;;;;;5037705;28;20124;-56
2022/01/13 15:13:31;;;;;;;16.63;3.85;;;;;;;;;;5034755;28;20029;-56
2022/01/13 15:15:56;;;;;;;13.32;4.43;;;;;;;;;;5042182;28;20040;-56